Time;durP1;ratioP1;P1;durP2;ratioP2;P2;SDS_P1;SDS_P2;PMS_P1;PMS_P2;Temp;Humidity;BMP_temperature;BMP_pressure;BME280_temperature;BME280_humidity;BME280_pressure;Samples;Min_cycle;Max_cycle;Signal;HPM_P1;HPM_P2
2024/03/09 09:02:49;;;;;;;8.07;2.60;;;9.80;99.90;;;;;;5039306;28;20482;-85
2024/03/09 09:05:18;;;;;;;4.47;2.63;;;10.10;99.90;;;;;;5040279;28;20461;-86
2024/03/09 09:07:46;;;;;;;3.67;2.33;;;10.30;99.90;;;;;;5050068;28;20470;-86
2024/03/09 09:10:14;;;;;;;3.47;2.30;;;10.60;99.90;;;;;;5059754;28;20472;-85
2024/03/09 09:12:41;;;;;;;3.23;1.90;;;11.00;99.90;;;;;;5059762;28;20442;-85
2024/03/09 09:15:09;;;;;;;5.43;1.80;;;11.70;99.90;;;;;;5059437;28;20457;-86
2024/03/09 09:17:37;;;;;;;4.77;1.70;;;12.80;99.90;;;;;;5058884;28;20472;-85
2024/03/09 09:20:10;;;;;;;3.43;1.63;;;14.00;99.90;;;;;;5058036;28;20835;-86
2024/03/09 09:22:37;;;;;;;3.67;1.87;;;15.50;99.90;;;;;;5058288;28;20426;-85
2024/03/09 09:25:06;;;;;;;3.80;1.80;;;16.90;99.90;;;;;;5058887;28;20438;-84
2024/03/09 09:27:34;;;;;;;5.00;1.93;;;18.50;99.90;;;;;;5058605;28;20493;-87
2024/03/09 09:30:01;;;;;;;4.87;2.50;;;19.40;99.40;;;;;;5059192;28;20446;-87
2024/03/09 09:32:28;;;;;;;1.50;1.27;;;20.60;95.80;;;;;;5057612;28;20422;-87
2024/03/09 09:34:54;;;;;;;5.70;3.43;;;20.70;90.70;;;;;;5058389;28;20455;-87
2024/03/09 09:37:22;;;;;;;5.07;3.10;;;20.80;90.30;;;;;;5058872;28;20994;-87
2024/03/09 09:39:51;;;;;;;4.23;2.60;;;21.30;88.00;;;;;;5058110;28;20446;-86
2024/03/09 09:42:18;;;;;;;2.97;2.53;;;21.80;83.80;;;;;;5057530;28;20493;-87
2024/03/09 09:44:45;;;;;;;4.90;2.30;;;22.40;79.20;;;;;;5058373;28;20437;-87
2024/03/09 09:47:13;;;;;;;4.90;3.00;;;22.90;75.80;;;;;;5061674;28;20461;-87
2024/03/09 09:49:40;;;;;;;3.70;2.13;;;23.30;73.70;;;;;;5058621;28;20452;-87
2024/03/09 09:52:09;;;;;;;4.57;2.88;;;23.90;71.00;;;;;;5065771;28;20191;-86
2024/03/09 09:54:38;;;;;;;3.42;2.03;;;24.40;71.00;;;;;;5060168;28;20218;-82
2024/03/09 09:57:05;;;;;;;2.35;1.95;;;24.50;66.00;;;;;;5060245;28;20225;-82
2024/03/09 09:59:32;;;;;;;2.50;2.13;;;24.30;65.40;;;;;;5060256;28;20218;-82
2024/03/09 10:01:58;;;;;;;2.75;1.83;;;24.20;63.60;;;;;;5067169;28;20222;-82
2024/03/09 10:04:26;;;;;;;2.97;2.08;;;23.60;63.70;;;;;;5079841;28;20258;-83
2024/03/09 10:07:07;;;;;;;2.80;2.20;;;22.30;67.60;;;;;;5078998;28;20187;-82
2024/03/09 10:09:34;;;;;;;3.00;2.57;;;21.80;67.70;;;;;;5079397;28;20195;-82
2024/03/09 10:12:02;;;;;;;4.27;2.77;;;22.80;69.70;;;;;;5079486;28;20174;-82
2024/03/09 10:14:30;;;;;;;8.43;2.87;;;20.80;67.40;;;;;;5079688;28;20433;-83
2024/03/09 10:17:01;;;;;;;3.53;2.27;;;20.30;69.00;;;;;;5063022;28;20501;-82
2024/03/09 10:19:28;;;;;;;4.33;2.17;;;20.70;71.20;;;;;;5057427;28;20457;-82
2024/03/09 10:21:54;;;;;;;3.27;2.17;;;20.50;69.40;;;;;;5056364;28;20477;-82
2024/03/09 10:24:23;;;;;;;4.47;2.33;;;20.70;69.10;;;;;;5057432;28;20445;-81
2024/03/09 10:26:50;;;;;;;1.43;1.33;;;20.60;70.00;;;;;;5059143;28;20449;-82
2024/03/09 10:29:21;;;;;;;4.93;2.30;;;19.90;69.00;;;;;;5059249;28;20453;-82
2024/03/09 10:31:50;;;;;;;4.00;2.10;;;19.60;69.50;;;;;;5060382;28;20475;-82
2024/03/09 10:34:17;;;;;;;3.37;2.20;;;19.90;69.50;;;;;;5058284;28;20464;-82
2024/03/09 10:36:44;;;;;;;3.20;2.10;;;20.00;68.30;;;;;;5057456;28;20854;-82
2024/03/09 10:39:15;;;;;;;2.20;1.83;;;20.80;66.70;;;;;;5057896;28;20445;-82
2024/03/09 10:41:50;;;;;;;2.77;1.80;;;21.40;65.70;;;;;;5058689;28;20563;-82
2024/03/09 10:44:18;;;;;;;2.60;1.57;;;22.70;64.50;;;;;;5057158;28;20552;-82
2024/03/09 10:46:47;;;;;;;1.80;0.90;;;23.40;61.10;;;;;;5056962;28;20449;-82
2024/03/09 10:49:20;;;;;;;2.63;1.50;;;23.20;58.40;;;;;;5057855;28;20473;-81
2024/03/09 10:51:50;;;;;;;1.67;1.53;;;23.20;59.10;;;;;;5061872;28;20426;-82
2024/03/09 10:54:23;;;;;;;1.33;1.23;;;23.50;58.70;;;;;;5061346;28;20432;-81
2024/03/09 10:56:51;;;;;;;2.27;1.70;;;23.40;57.40;;;;;;5059908;28;20430;-82
2024/03/09 10:59:22;;;;;;;4.40;1.87;;;23.30;55.30;;;;;;5061345;28;20480;-83
2024/03/09 11:01:52;;;;;;;2.30;1.70;;;23.40;57.40;;;;;;5058746;28;20511;-82
2024/03/09 11:04:20;;;;;;;2.97;2.40;;;23.40;57.00;;;;;;5062224;28;20807;-82
2024/03/09 11:06:47;;;;;;;6.57;4.30;;;23.40;56.50;;;;;;5056138;28;20267;-82
2024/03/09 11:09:15;;;;;;;1.60;1.50;;;22.60;56.20;;;;;;5056633;28;20574;-82
2024/03/09 11:11:44;;;;;;;3.63;1.87;;;20.70;59.10;;;;;;5056158;28;20495;-82
2024/03/09 11:14:15;;;;;;;2.47;2.00;;;19.90;64.90;;;;;;5056409;28;20453;-82
2024/03/09 11:16:43;;;;;;;2.37;2.10;;;19.70;64.60;;;;;;5056433;28;20532;-82
2024/03/09 11:19:14;;;;;;;3.27;1.87;;;19.10;64.00;;;;;;5058730;28;20441;-80
2024/03/09 11:21:41;;;;;;;6.50;2.63;;;18.00;64.30;;;;;;5059396;28;20516;-80
2024/03/09 11:24:11;;;;;;;3.47;2.23;;;17.20;66.80;;;;;;5062268;28;20854;-82
2024/03/09 11:26:42;;;;;;;3.70;2.47;;;16.80;68.40;;;;;;5061992;28;20453;-81
2024/03/09 11:29:10;;;;;;;4.43;2.20;;;16.80;70.20;;;;;;5063591;28;20430;-82
2024/03/09 11:31:40;;;;;;;3.27;2.30;;;16.40;70.10;;;;;;5067424;28;20456;-82
2024/03/09 11:34:16;;;;;;;5.10;2.20;;;15.90;70.30;;;;;;5062473;28;20442;-82
2024/03/09 11:36:50;;;;;;;4.83;2.30;;;15.80;72.30;;;;;;5059446;28;20426;-81
2024/03/09 11:39:20;;;;;;;3.57;2.30;;;15.80;74.20;;;;;;5059324;28;20442;-82
2024/03/09 11:41:47;;;;;;;6.33;2.90;;;15.50;74.10;;;;;;5059412;28;20891;-82
2024/03/09 11:44:17;;;;;;;2.40;1.77;;;15.40;74.40;;;;;;5058557;28;20449;-82
2024/03/09 11:46:44;;;;;;;2.83;1.90;;;15.40;75.00;;;;;;5058632;28;20491;-82
2024/03/09 11:49:11;;;;;;;3.63;1.90;;;15.20;75.00;;;;;;5059177;28;20434;-81
2024/03/09 11:51:40;;;;;;;5.40;2.67;;;15.10;76.50;;;;;;5060244;28;20446;-82
2024/03/09 11:54:09;;;;;;;3.57;2.30;;;14.90;76.40;;;;;;5060992;28;20477;-82
2024/03/09 11:56:38;;;;;;;4.30;2.33;;;14.80;76.00;;;;;;5065675;28;20453;-82
2024/03/09 11:59:06;;;;;;;3.17;2.20;;;14.80;79.00;;;;;;5057980;28;20467;-82
2024/03/09 12:01:34;;;;;;;5.03;2.43;;;14.90;79.60;;;;;;5062703;28;20485;-82
2024/03/09 12:04:02;;;;;;;4.80;2.40;;;14.70;79.40;;;;;;5062479;28;20504;-82
2024/03/09 12:06:28;;;;;;;6.80;3.13;;;14.70;76.60;;;;;;5061742;28;20434;-82
2024/03/09 12:08:56;;;;;;;2.90;2.30;;;14.60;79.30;;;;;;5061321;28;20469;-82
2024/03/09 12:11:24;;;;;;;4.03;2.40;;;14.40;79.10;;;;;;5064663;28;20452;-82
2024/03/09 12:13:52;;;;;;;3.63;1.90;;;14.30;81.30;;;;;;5064824;28;20434;-82
2024/03/09 12:16:20;;;;;;;4.53;2.60;;;14.30;80.20;;;;;;5062349;28;20445;-82
2024/03/09 12:18:48;;;;;;;2.60;2.10;;;14.20;81.00;;;;;;5062239;28;20465;-82
2024/03/09 12:21:17;;;;;;;3.87;2.13;;;14.30;82.10;;;;;;5061994;28;20493;-82
2024/03/09 12:23:48;;;;;;;3.63;2.10;;;14.20;77.90;;;;;;5061634;28;20441;-82
2024/03/09 12:26:16;;;;;;;4.13;2.00;;;14.10;81.10;;;;;;5059472;28;20429;-82
2024/03/09 12:28:45;;;;;;;2.13;1.43;;;14.20;81.10;;;;;;5058627;28;20480;-82
2024/03/09 12:31:13;;;;;;;7.77;2.53;;;14.30;81.30;;;;;;5060633;28;20450;-82
2024/03/09 12:33:40;;;;;;;3.80;2.00;;;14.50;81.10;;;;;;5062603;28;20873;-82
2024/03/09 12:36:09;;;;;;;4.50;1.87;;;15.20;80.50;;;;;;5060385;28;20433;-82
2024/03/09 12:38:36;;;;;;;2.87;1.80;;;14.50;77.30;;;;;;5060757;28;20465;-82
2024/03/09 12:41:04;;;;;;;2.37;2.10;;;14.60;79.60;;;;;;5060450;28;20485;-82
2024/03/09 12:43:34;;;;;;;3.27;2.50;;;14.70;79.00;;;;;;5059788;28;20517;-81
2024/03/09 12:46:06;;;;;;;3.80;2.17;;;14.70;78.90;;;;;;5058546;28;20430;-81
2024/03/09 12:48:35;;;;;;;6.27;1.30;;;14.60;77.60;;;;;;5057934;28;20978;-82
2024/03/09 12:51:04;;;;;;;6.43;2.57;;;14.50;80.40;;;;;;5057043;28;20446;-81
2024/03/09 12:53:33;;;;;;;7.07;2.70;;;14.50;78.10;;;;;;5060448;28;20989;-80
2024/03/09 12:56:02;;;;;;;2.50;1.53;;;14.30;79.00;;;;;;5057609;28;20430;-80
2024/03/09 12:58:30;;;;;;;2.53;1.33;;;14.40;78.60;;;;;;5058588;28;20468;-81
2024/03/09 13:00:59;;;;;;;5.77;2.13;;;14.50;79.20;;;;;;5057859;28;20458;-79
2024/03/09 13:03:26;;;;;;;1.20;1.10;;;14.50;78.80;;;;;;5071721;28;20488;-80
2024/03/09 13:05:53;;;;;;;3.17;1.60;;;14.50;78.00;;;;;;5079494;28;20438;-80
2024/03/09 13:08:24;;;;;;;2.30;1.33;;;14.40;76.00;;;;;;5079634;28;20462;-80
2024/03/09 13:10:50;;;;;;;4.67;2.30;;;14.50;77.30;;;;;;5078729;28;20422;-80
2024/03/09 13:13:19;;;;;;;4.97;2.47;;;14.50;77.20;;;;;;5077295;28;20817;-80
2024/03/09 13:15:50;;;;;;;2.17;1.67;;;14.80;77.50;;;;;;5063201;28;20482;-80
2024/03/09 13:18:19;;;;;;;3.53;2.87;;;15.00;77.50;;;;;;5060834;28;20548;-80
2024/03/09 13:20:48;;;;;;;3.20;1.60;;;15.20;75.40;;;;;;5061069;28;20449;-81
2024/03/09 13:23:16;;;;;;;2.60;1.80;;;15.20;74.80;;;;;;5060676;28;20531;-81
2024/03/09 13:25:46;;;;;;;1.73;1.30;;;15.10;75.40;;;;;;5060082;28;20450;-81
2024/03/09 13:28:12;;;;;;;2.40;1.20;;;14.80;76.20;;;;;;5060055;28;21002;-80
2024/03/09 13:30:40;;;;;;;1.37;1.27;;;14.80;76.50;;;;;;5059290;28;20446;-80
2024/03/09 13:33:10;;;;;;;1.90;1.00;;;14.60;73.60;;;;;;5059771;28;20988;-80
2024/03/09 13:35:38;;;;;;;1.37;0.97;;;14.30;72.10;;;;;;5058684;28;20537;-80
2024/03/09 13:38:06;;;;;;;2.33;1.53;;;14.20;73.10;;;;;;5058425;28;20476;-80
2024/03/09 13:40:33;;;;;;;1.80;1.33;;;14.20;73.80;;;;;;5058078;28;20508;-80
2024/03/09 13:43:00;;;;;;;1.20;0.70;;;14.30;71.70;;;;;;5057816;28;20476;-80
2024/03/09 13:45:28;;;;;;;2.20;1.27;;;14.20;71.10;;;;;;5058941;28;20445;-80
2024/03/09 13:48:06;;;;;;;2.67;1.10;;;14.20;70.70;;;;;;5059350;28;20461;-80
2024/03/09 13:50:34;;;;;;;1.00;0.80;;;14.10;69.50;;;;;;5058488;28;20458;-80
2024/03/09 13:53:05;;;;;;;1.33;1.07;;;14.00;69.20;;;;;;5058405;28;20507;-80
2024/03/09 13:55:32;;;;;;;1.00;0.90;;;14.10;70.00;;;;;;5057652;28;20436;-80
2024/03/09 13:57:59;;;;;;;2.00;1.27;;;14.00;70.50;;;;;;5058280;28;20474;-80
2024/03/09 14:00:28;;;;;;;0.60;0.57;;;14.00;70.90;;;;;;5057507;28;20430;-80
2024/03/09 14:02:56;;;;;;;1.27;1.07;;;14.00;69.90;;;;;;5056584;28;20865;-82
2024/03/09 14:05:24;;;;;;;1.33;0.87;;;14.00;70.30;;;;;;5056892;28;20533;-81
2024/03/09 14:07:56;;;;;;;1.93;0.97;;;14.10;70.00;;;;;;5058031;28;20474;-80
2024/03/09 14:10:25;;;;;;;1.17;0.87;;;14.20;69.40;;;;;;5057879;28;20442;-81
2024/03/09 14:12:53;;;;;;;1.40;0.83;;;14.30;70.00;;;;;;5057172;28;20449;-81
2024/03/09 14:15:24;;;;;;;1.47;0.90;;;14.40;70.90;;;;;;5065225;28;20457;-80
2024/03/09 14:17:51;;;;;;;1.00;0.90;;;14.50;70.20;;;;;;5075759;28;20477;-81
2024/03/09 14:20:22;;;;;;;1.40;0.97;;;14.50;70.60;;;;;;5076351;28;20445;-81
2024/03/09 14:22:51;;;;;;;2.77;1.23;;;14.50;70.80;;;;;;5077186;28;20470;-81
2024/03/09 14:25:23;;;;;;;1.53;0.80;;;14.60;70.00;;;;;;5077017;28;20896;-81
2024/03/09 14:27:52;;;;;;;0.90;0.70;;;14.70;69.70;;;;;;5065923;28;20529;-81
2024/03/09 14:30:24;;;;;;;2.50;0.80;;;14.70;68.90;;;;;;5063623;28;20449;-81
2024/03/09 14:32:53;;;;;;;0.97;0.87;;;14.80;69.50;;;;;;5065544;28;20429;-81
2024/03/09 14:35:20;;;;;;;1.20;0.90;;;14.80;69.10;;;;;;5062890;28;20442;-81
2024/03/09 14:37:47;;;;;;;0.60;0.60;;;14.80;69.00;;;;;;5061328;28;20473;-81
2024/03/09 14:40:16;;;;;;;0.77;0.67;;;14.80;68.40;;;;;;5061437;28;20472;-81
2024/03/09 14:42:44;;;;;;;2.77;1.17;;;14.80;67.70;;;;;;5060909;28;20576;-80
2024/03/09 14:45:18;;;;;;;0.80;0.60;;;14.80;68.20;;;;;;5060407;28;20476;-80
2024/03/09 14:47:48;;;;;;;1.97;1.00;;;14.70;67.00;;;;;;5060696;28;20462;-80
2024/03/09 14:50:16;;;;;;;0.80;0.73;;;14.70;66.20;;;;;;5060025;28;20437;-80
2024/03/09 14:52:43;;;;;;;1.20;0.90;;;14.60;66.80;;;;;;5058782;28;20468;-80
2024/03/09 14:55:12;;;;;;;0.50;0.50;;;14.50;66.90;;;;;;5058162;28;20454;-82
2024/03/09 14:57:40;;;;;;;1.27;0.73;;;14.40;66.20;;;;;;5059420;28;20974;-80
2024/03/09 15:00:48;;;;;;;0.87;0.87;;;14.40;67.20;;;;;;5058267;28;20453;-80
2024/03/09 15:02:56;;;;;;;1.40;0.70;;;14.40;67.50;;;;;;5056162;28;20504;-80
2024/03/09 15:05:26;;;;;;;1.73;1.20;;;14.40;66.50;;;;;;5057553;28;20492;-80
2024/03/09 15:07:54;;;;;;;1.70;0.80;;;14.40;68.70;;;;;;5054524;28;20468;-80
2024/03/09 15:10:23;;;;;;;2.50;0.80;;;14.30;69.00;;;;;;5055500;28;20436;-80
2024/03/09 15:12:51;;;;;;;0.90;0.73;;;14.30;68.50;;;;;;5055493;28;20485;-80
2024/03/09 15:15:18;;;;;;;1.80;0.90;;;14.20;68.40;;;;;;5054703;28;20446;-80
2024/03/09 15:17:44;;;;;;;1.43;0.87;;;14.30;67.70;;;;;;5054477;28;20469;-80
2024/03/09 15:20:22;;;;;;;1.87;1.07;;;14.20;68.10;;;;;;5056913;28;20442;-80
2024/03/09 15:22:49;;;;;;;2.70;0.70;;;14.20;68.90;;;;;;5056800;28;20509;-80
2024/03/09 15:25:15;;;;;;;1.83;1.00;;;14.10;69.00;;;;;;5057375;28;20442;-80
2024/03/09 15:27:43;;;;;;;1.80;0.77;;;14.10;69.30;;;;;;5055367;28;20470;-80
2024/03/09 15:30:12;;;;;;;3.47;1.13;;;14.10;69.70;;;;;;5053813;28;20803;-80
2024/03/09 15:32:40;;;;;;;6.53;0.87;;;14.20;70.90;;;;;;5053975;28;20469;-80
2024/03/09 15:35:07;;;;;;;3.10;1.50;;;14.20;71.30;;;;;;5053192;28;20811;-80
2024/03/09 15:37:35;;;;;;;2.90;1.50;;;14.20;71.90;;;;;;5053432;28;20472;-83
2024/03/09 15:40:04;;;;;;;11.93;2.10;;;14.20;71.50;;;;;;5053973;28;20442;-83
2024/03/09 15:42:34;;;;;;;3.80;1.70;;;14.20;72.10;;;;;;5056625;28;20527;-83
2024/03/09 15:45:02;;;;;;;1.67;1.33;;;14.10;72.70;;;;;;5055796;28;20481;-83
2024/03/09 15:47:29;;;;;;;1.30;1.20;;;14.10;72.20;;;;;;5056047;28;20477;-83
2024/03/09 15:49:56;;;;;;;2.63;1.23;;;14.00;72.30;;;;;;5055980;28;20824;-83
2024/03/09 15:52:23;;;;;;;2.47;2.27;;;13.90;74.60;;;;;;5055764;28;20442;-83
2024/03/09 15:54:57;;;;;;;3.20;1.87;;;13.90;75.20;;;;;;5060207;28;20422;-82
2024/03/09 15:57:24;;;;;;;1.53;1.43;;;14.00;75.20;;;;;;5077871;28;20469;-81
2024/03/09 15:59:50;;;;;;;2.37;1.30;;;13.90;75.40;;;;;;5077782;28;20414;-82
2024/03/09 16:02:17;;;;;;;3.53;1.13;;;13.90;75.50;;;;;;5073584;28;20478;-82
2024/03/09 16:04:48;;;;;;;1.97;1.10;;;13.90;76.00;;;;;;5067757;28;20426;-83
2024/03/09 16:07:16;;;;;;;3.80;1.67;;;13.90;75.50;;;;;;5060056;28;20498;-83
2024/03/09 16:09:42;;;;;;;2.77;1.60;;;13.90;75.60;;;;;;5060732;28;20453;-82
2024/03/09 16:12:11;;;;;;;3.97;1.50;;;13.80;76.00;;;;;;5060645;28;20453;-83
2024/03/09 16:14:38;;;;;;;5.30;2.00;;;13.70;77.10;;;;;;5059884;28;20446;-83
2024/03/09 16:17:05;;;;;;;1.83;1.23;;;13.50;77.80;;;;;;5059879;28;20470;-83
2024/03/09 16:19:32;;;;;;;1.03;1.03;;;13.50;77.60;;;;;;5059428;28;20450;-83
2024/03/09 16:21:59;;;;;;;2.37;1.53;;;13.40;78.00;;;;;;5058649;28;20484;-82
2024/03/09 16:24:28;;;;;;;2.90;2.20;;;13.20;78.80;;;;;;5059315;28;20494;-82
2024/03/09 16:26:54;;;;;;;2.63;1.30;;;13.10;79.90;;;;;;5059845;28;20456;-82
2024/03/09 16:29:22;;;;;;;2.73;2.13;;;13.00;79.60;;;;;;5060314;28;20435;-82
2024/03/09 16:31:49;;;;;;;2.00;1.43;;;12.90;80.20;;;;;;5064292;28;20442;-82
2024/03/09 16:34:17;;;;;;;2.23;2.03;;;12.90;80.80;;;;;;5061462;28;20442;-82
2024/03/09 16:36:44;;;;;;;3.60;1.83;;;12.80;81.70;;;;;;5062425;28;20450;-82
2024/03/09 16:39:11;;;;;;;3.23;2.30;;;12.70;81.20;;;;;;5061173;28;20804;-82
2024/03/09 16:41:39;;;;;;;2.80;1.40;;;12.80;81.40;;;;;;5060859;28;20875;-87
2024/03/09 16:44:06;;;;;;;1.90;1.50;;;12.80;81.60;;;;;;5059897;28;21021;-82
2024/03/09 16:46:34;;;;;;;3.03;1.20;;;12.70;82.30;;;;;;5061780;28;20433;-82
2024/03/09 16:49:01;;;;;;;3.57;2.00;;;12.70;82.70;;;;;;5061289;28;20462;-83
2024/03/09 16:51:27;;;;;;;2.97;1.43;;;12.60;83.40;;;;;;5060257;28;20446;-82
2024/03/09 16:53:54;;;;;;;6.27;3.03;;;12.60;85.10;;;;;;5059361;28;20452;-81
2024/03/09 16:56:21;;;;;;;3.47;2.90;;;12.60;85.40;;;;;;5058996;28;20442;-79
2024/03/09 16:58:48;;;;;;;8.40;3.47;;;12.50;86.70;;;;;;5058530;28;20469;-81
2024/03/09 17:01:15;;;;;;;5.87;2.77;;;12.50;87.70;;;;;;5058622;28;20484;-81
2024/03/09 17:03:43;;;;;;;4.07;2.73;;;12.40;88.90;;;;;;5058016;28;20479;-81
2024/03/09 17:06:13;;;;;;;6.80;3.47;;;12.30;88.70;;;;;;5058325;28;20453;-81
2024/03/09 17:08:40;;;;;;;4.63;3.10;;;12.20;89.70;;;;;;5058059;28;20519;-81
2024/03/09 17:11:09;;;;;;;4.40;2.37;;;12.20;90.30;;;;;;5058331;28;20503;-81
2024/03/09 17:13:40;;;;;;;5.20;2.60;;;12.10;90.50;;;;;;5057766;28;20442;-82
2024/03/09 17:16:10;;;;;;;5.00;3.50;;;12.00;90.70;;;;;;5056836;28;20434;-81
2024/03/09 17:18:37;;;;;;;4.17;2.53;;;12.00;91.20;;;;;;5057504;28;20462;-81
2024/03/09 17:21:05;;;;;;;5.07;3.47;;;12.00;91.40;;;;;;5057188;28;20449;-81
2024/03/09 17:23:32;;;;;;;4.23;3.10;;;11.90;91.30;;;;;;5057343;28;20477;-81
2024/03/09 17:26:00;;;;;;;9.70;4.00;;;11.90;91.60;;;;;;5057230;28;20468;-81
2024/03/09 17:28:27;;;;;;;4.67;3.20;;;11.90;91.80;;;;;;5056655;28;20894;-81
2024/03/09 17:30:56;;;;;;;4.93;3.90;;;11.80;91.90;;;;;;5056628;28;20430;-81
2024/03/09 17:33:23;;;;;;;5.43;2.60;;;12.00;92.20;;;;;;5057007;28;20569;-81
2024/03/09 17:35:52;;;;;;;7.50;2.60;;;11.80;92.10;;;;;;5056461;28;20434;-81
2024/03/09 17:38:20;;;;;;;5.33;3.30;;;11.80;92.20;;;;;;5056604;28;20476;-81
2024/03/09 17:40:47;;;;;;;5.53;2.63;;;11.80;92.40;;;;;;5056455;28;20469;-81
2024/03/09 17:43:14;;;;;;;6.50;3.60;;;11.80;92.30;;;;;;5056586;28;20474;-81
2024/03/09 17:45:41;;;;;;;4.40;2.90;;;11.90;92.60;;;;;;5057231;28;20445;-81
2024/03/09 17:48:08;;;;;;;6.13;2.93;;;11.80;92.30;;;;;;5057538;28;20827;-82
2024/03/09 17:50:36;;;;;;;3.70;2.60;;;11.70;92.70;;;;;;5057134;28;20503;-81
2024/03/09 17:53:05;;;;;;;8.47;3.93;;;11.70;92.80;;;;;;5058791;28;20450;-81
2024/03/09 17:55:33;;;;;;;8.10;2.97;;;11.70;92.80;;;;;;5057162;28;20518;-81
2024/03/09 17:58:00;;;;;;;7.53;3.37;;;11.70;92.80;;;;;;5057339;28;20462;-81
2024/03/09 18:00:30;;;;;;;6.50;3.20;;;11.70;92.90;;;;;;5056931;28;20927;-81
2024/03/09 18:02:59;;;;;;;6.37;2.70;;;11.70;93.00;;;;;;5055191;28;20485;-81
2024/03/09 18:05:28;;;;;;;5.87;4.27;;;11.60;93.30;;;;;;5057761;28;20449;-81
2024/03/09 18:07:55;;;;;;;4.73;3.57;;;11.60;93.60;;;;;;5060374;28;20884;-81
2024/03/09 18:10:22;;;;;;;7.77;3.87;;;11.50;93.50;;;;;;5060311;28;20430;-81
2024/03/09 18:12:52;;;;;;;3.80;2.80;;;11.50;94.00;;;;;;5059827;28;20438;-81
2024/03/09 18:15:19;;;;;;;5.83;3.20;;;11.40;94.00;;;;;;5059693;28;20422;-81
2024/03/09 18:17:47;;;;;;;8.63;4.80;;;11.50;94.40;;;;;;5060675;28;20462;-81
2024/03/09 18:20:14;;;;;;;10.33;3.13;;;11.50;94.30;;;;;;5060083;28;20484;-81
2024/03/09 18:22:41;;;;;;;6.70;4.10;;;11.40;94.40;;;;;;5054808;28;20930;-82
2024/03/09 18:25:08;;;;;;;7.00;2.90;;;11.40;95.00;;;;;;5054995;28;20484;-81
2024/03/09 18:27:35;;;;;;;9.80;3.57;;;11.40;95.00;;;;;;5054798;28;20461;-81
2024/03/09 18:30:05;;;;;;;5.53;3.60;;;11.40;95.10;;;;;;5055801;28;20437;-81
2024/03/09 18:32:32;;;;;;;9.70;4.20;;;11.40;95.30;;;;;;5055891;28;20461;-81
2024/03/09 18:34:58;;;;;;;5.13;3.07;;;11.30;95.50;;;;;;5056564;28;20445;-82
2024/03/09 18:37:26;;;;;;;5.20;2.90;;;11.20;96.10;;;;;;5058072;28;20469;-82
2024/03/09 18:39:53;;;;;;;10.17;4.00;;;11.10;96.40;;;;;;5057892;28;20422;-82
2024/03/09 18:42:19;;;;;;;9.37;4.30;;;11.00;96.70;;;;;;5062314;28;20426;-82
2024/03/09 18:44:46;;;;;;;10.97;5.63;;;11.00;96.80;;;;;;5079100;28;20481;-82
2024/03/09 18:47:14;;;;;;;6.67;3.20;;;11.00;96.80;;;;;;5078670;28;20449;-82
2024/03/09 18:49:43;;;;;;;7.07;3.37;;;10.90;97.40;;;;;;5077836;28;20418;-82
2024/03/09 18:52:11;;;;;;;3.73;2.63;;;10.80;97.70;;;;;;5076727;28;20437;-81
2024/03/09 18:54:39;;;;;;;3.23;2.50;;;10.90;97.80;;;;;;5060182;28;20470;-81
2024/03/09 18:57:06;;;;;;;3.80;2.27;;;10.80;97.90;;;;;;5058697;28;20489;-81
2024/03/09 18:59:36;;;;;;;6.87;2.70;;;10.80;98.40;;;;;;5058054;28;20532;-81
2024/03/09 19:02:03;;;;;;;4.87;2.83;;;10.70;98.60;;;;;;5058980;28;20465;-84
2024/03/09 19:04:32;;;;;;;7.03;3.10;;;10.70;98.90;;;;;;5058364;28;20485;-81
2024/03/09 19:06:59;;;;;;;6.13;2.90;;;10.60;99.20;;;;;;5057822;28;20454;-81
2024/03/09 19:09:26;;;;;;;4.50;2.77;;;10.50;99.50;;;;;;5056729;28;20815;-81
2024/03/09 19:11:54;;;;;;;6.47;2.70;;;10.50;99.60;;;;;;5056664;28;20892;-81
2024/03/09 19:14:21;;;;;;;4.27;3.17;;;10.40;99.90;;;;;;5057040;28;20473;-81
2024/03/09 19:16:47;;;;;;;5.93;3.83;;;10.40;99.90;;;;;;5057070;28;20857;-82
2024/03/09 19:19:14;;;;;;;4.30;2.87;;;10.30;99.90;;;;;;5056852;28;20446;-81
2024/03/09 19:21:42;;;;;;;9.17;3.17;;;10.40;99.90;;;;;;5056043;28;20438;-81
2024/03/09 19:24:09;;;;;;;3.77;2.60;;;10.30;99.90;;;;;;5055653;28;20480;-81
2024/03/09 19:26:36;;;;;;;4.97;2.80;;;10.30;99.90;;;;;;5056069;28;20457;-81
2024/03/09 19:29:06;;;;;;;2.80;2.17;;;10.20;99.90;;;;;;5055501;28;20489;-83
2024/03/09 19:31:34;;;;;;;4.50;3.27;;;10.30;99.90;;;;;;5055793;28;20791;-81
2024/03/09 19:34:01;;;;;;;6.47;3.37;;;10.10;99.90;;;;;;5055769;28;20445;-81
2024/03/09 19:36:29;;;;;;;3.73;2.20;;;10.10;99.90;;;;;;5054978;28;20450;-80
2024/03/09 19:38:58;;;;;;;5.23;2.87;;;10.10;99.90;;;;;;5055376;28;20474;-80
2024/03/09 19:41:25;;;;;;;5.83;2.50;;;10.10;99.90;;;;;;5059154;28;20456;-81
2024/03/09 19:43:52;;;;;;;4.60;2.20;;;10.10;99.90;;;;;;5060424;28;20473;-81
2024/03/09 19:46:19;;;;;;;3.40;1.90;;;10.00;99.90;;;;;;5059384;28;20449;-83
2024/03/09 19:48:46;;;;;;;5.03;2.00;;;10.10;99.90;;;;;;5059262;28;20473;-80
2024/03/09 19:51:13;;;;;;;5.57;2.70;;;10.10;99.90;;;;;;5058912;28;20481;-81
2024/03/09 19:53:40;;;;;;;4.97;2.37;;;10.10;99.90;;;;;;5058665;28;20977;-80
2024/03/09 19:56:09;;;;;;;4.17;1.83;;;10.10;99.90;;;;;;5058691;28;20503;-81
2024/03/09 19:58:37;;;;;;;4.60;2.50;;;10.10;99.90;;;;;;5058399;28;20470;-81
2024/03/09 20:01:08;;;;;;;2.70;1.73;;;10.10;99.90;;;;;;5058565;28;20531;-81
2024/03/09 20:03:39;;;;;;;6.13;2.50;;;10.20;99.90;;;;;;5058548;28;20438;-81
2024/03/09 20:06:06;;;;;;;3.37;2.40;;;10.00;99.90;;;;;;5058398;28;20434;-81
2024/03/09 20:08:33;;;;;;;7.90;1.93;;;10.00;99.90;;;;;;5058927;28;20469;-83
2024/03/09 20:11:05;;;;;;;2.70;1.87;;;9.90;99.90;;;;;;5058426;28;20446;-80
2024/03/09 20:13:34;;;;;;;3.67;2.23;;;10.00;99.90;;;;;;5058355;28;20442;-81
2024/03/09 20:16:01;;;;;;;3.50;2.20;;;9.90;99.90;;;;;;5058857;28;20532;-81
2024/03/09 20:18:28;;;;;;;5.23;3.30;;;9.90;99.90;;;;;;5057874;28;20501;-80
2024/03/09 20:20:54;;;;;;;4.43;2.00;;;9.90;99.90;;;;;;5058152;28;20950;-81
2024/03/09 20:23:21;;;;;;;3.60;2.30;;;9.90;99.90;;;;;;5058187;28;20484;-81
2024/03/09 20:25:50;;;;;;;2.90;2.23;;;9.80;99.90;;;;;;5057919;28;20477;-81
2024/03/09 20:28:17;;;;;;;3.13;2.27;;;9.90;99.90;;;;;;5059781;28;20879;-81
2024/03/09 20:30:45;;;;;;;4.20;2.40;;;9.80;99.90;;;;;;5059929;28;20507;-81
2024/03/09 20:33:13;;;;;;;7.03;2.17;;;9.80;99.90;;;;;;5061466;28;20454;-82
2024/03/09 20:35:40;;;;;;;5.73;3.80;;;9.80;99.90;;;;;;5061440;28;20442;-82
2024/03/09 20:38:06;;;;;;;5.80;2.20;;;9.70;99.90;;;;;;5073660;28;20469;-82
2024/03/09 20:40:33;;;;;;;4.40;2.50;;;9.60;99.90;;;;;;5075859;28;20443;-82
2024/03/09 20:43:00;;;;;;;7.10;3.20;;;9.60;99.90;;;;;;5077585;28;20450;-82
2024/03/09 20:45:27;;;;;;;5.10;2.20;;;9.60;99.90;;;;;;5076078;28;20477;-82
2024/03/09 20:47:57;;;;;;;10.90;2.90;;;9.50;99.90;;;;;;5074054;28;20809;-81
2024/03/09 20:50:25;;;;;;;3.53;2.00;;;9.40;99.90;;;;;;5061314;28;20456;-82
2024/03/09 20:52:57;;;;;;;4.77;2.73;;;9.40;99.90;;;;;;5060000;28;20483;-81
2024/03/09 20:55:25;;;;;;;5.77;1.87;;;9.40;99.90;;;;;;5059378;28;20440;-81
2024/03/09 20:57:51;;;;;;;1.87;1.70;;;9.40;99.90;;;;;;5058272;28;20477;-81
2024/03/09 21:00:22;;;;;;;4.90;2.80;;;9.40;99.90;;;;;;5059119;28;20480;-81
2024/03/09 21:02:49;;;;;;;4.00;2.00;;;9.30;99.90;;;;;;5057562;28;20486;-81
2024/03/09 21:05:17;;;;;;;7.07;2.93;;;9.20;99.90;;;;;;5057849;28;20485;-81
2024/03/09 21:07:44;;;;;;;2.90;2.10;;;9.20;99.90;;;;;;5058871;28;20979;-81
2024/03/09 21:10:13;;;;;;;5.23;2.70;;;9.10;99.90;;;;;;5057840;28;20426;-81
2024/03/09 21:12:40;;;;;;;5.20;2.50;;;9.00;99.90;;;;;;5057437;28;20800;-81
2024/03/09 21:15:08;;;;;;;5.47;2.20;;;8.90;99.90;;;;;;5056924;28;20454;-81
2024/03/09 21:17:34;;;;;;;5.43;2.70;;;9.00;99.90;;;;;;5057104;28;20466;-81
2024/03/09 21:20:04;;;;;;;2.33;1.73;;;9.00;99.90;;;;;;5057231;28;20434;-82
2024/03/09 21:22:32;;;;;;;2.20;1.67;;;8.90;99.90;;;;;;5057112;28;20476;-81
2024/03/09 21:24:58;;;;;;;1.83;1.40;;;8.90;99.90;;;;;;5056436;28;20997;-80
2024/03/09 21:27:26;;;;;;;3.80;2.50;;;8.90;99.90;;;;;;5055784;28;20540;-81
2024/03/09 21:29:53;;;;;;;4.70;2.40;;;8.90;99.90;;;;;;5055990;28;20446;-81
2024/03/09 21:32:20;;;;;;;2.50;1.73;;;8.80;99.90;;;;;;5055809;28;20454;-81
2024/03/09 21:34:47;;;;;;;3.90;2.23;;;8.80;99.90;;;;;;5057257;28;20444;-81
2024/03/09 21:37:14;;;;;;;3.13;2.50;;;8.70;99.90;;;;;;5056626;28;20458;-82
2024/03/09 21:39:42;;;;;;;4.93;2.70;;;8.70;99.90;;;;;;5056830;28;20855;-81
2024/03/09 21:42:13;;;;;;;2.43;1.93;;;8.70;99.90;;;;;;5055464;28;20452;-81
2024/03/09 21:44:40;;;;;;;3.77;2.23;;;8.70;99.90;;;;;;5054341;28;20465;-81
2024/03/09 21:47:07;;;;;;;5.93;2.00;;;8.70;99.90;;;;;;5054685;28;20524;-81
2024/03/09 21:49:34;;;;;;;2.70;1.70;;;8.70;99.90;;;;;;5054961;28;20480;-81
2024/03/09 21:52:02;;;;;;;3.20;1.87;;;8.60;99.90;;;;;;5055053;28;20446;-81
2024/03/09 21:54:29;;;;;;;4.93;2.33;;;8.60;99.90;;;;;;5055872;28;20537;-81